Mullinville, Kansas
Current Conditions -  °F | °C
As of 1:52 PM on Saturday 25 Oct 2014 (Local Time) from KDDC Reporting Station
Clear Clear  
Wind Chill: 89°   Ceiling: Unl
Heat Index: 89°   Visibility: 10mi
Dew Point: 42°   Wind: 13mph
Humidity: 19%   Direction: 190°S
Pressure: 30.06"   Gusts: 20mph
Location:  37.59°N, 99.48°W
Report Text: KDDC 251852Z AUTO 19011G17KT 10SM CLR 32/06 A3006 RMK AO2 SLP152 T03170056
Loading
Personal Weather Stations






























Interactive Weather Map New forecast layout! Learn more

10-Day Weather Forecast

Advertisements
Track Severe Weather on mobile